createdAt,value
2022-12-18T00:01:27.139Z,119.97
2022-12-18T00:03:56.230Z,102.10
2022-12-18T00:06:25.959Z,97.90
2022-12-18T00:08:53.997Z,105.43
2022-12-18T00:11:24.389Z,103.45
2022-12-18T00:13:52.280Z,109.13
2022-12-18T00:16:21.995Z,106.90
2022-12-18T00:18:50.594Z,108.73
2022-12-18T00:21:17.949Z,103.18
2022-12-18T00:23:46.024Z,101.72
2022-12-18T00:26:16.862Z,93.25
2022-12-18T00:28:44.685Z,102.57
2022-12-18T00:31:16.420Z,105.90
2022-12-18T00:33:44.412Z,93.63
2022-12-18T00:36:18.890Z,105.93
2022-12-18T00:38:47.305Z,104.07
2022-12-18T00:41:36.680Z,95.28
2022-12-18T00:44:07.450Z,101.22
2022-12-18T00:46:34.817Z,100.93
2022-12-18T00:49:02.579Z,91.88
2022-12-18T00:51:29.843Z,89.82
2022-12-18T00:53:57.301Z,92.88
2022-12-18T00:56:25.358Z,94.95
2022-12-18T00:58:53.936Z,94.20
2022-12-18T01:01:21.522Z,82.57
2022-12-18T01:03:49.395Z,82.15
2022-12-18T01:06:18.180Z,84.68
2022-12-18T01:08:45.790Z,85.18
2022-12-18T01:11:19.973Z,82.95
2022-12-18T01:13:47.415Z,88.90
2022-12-18T01:16:17.280Z,82.38
2022-12-18T01:18:44.746Z,78.95
2022-12-18T01:21:17.258Z,77.72
2022-12-18T01:23:44.608Z,85.50
2022-12-18T01:26:15.727Z,85.65
2022-12-18T01:28:44.711Z,80.38
2022-12-18T01:31:18.212Z,86.60
2022-12-18T01:33:46.482Z,74.15
2022-12-18T01:36:17.534Z,87.00
2022-12-18T01:38:45.556Z,87.88
2022-12-18T01:41:12.996Z,80.10
2022-12-18T01:43:51.101Z,87.13
2022-12-18T01:46:21.477Z,83.32
2022-12-18T01:48:58.836Z,86.80
2022-12-18T01:51:30.045Z,83.50
2022-12-18T01:53:58.712Z,59.60
2022-12-18T01:56:26.132Z,88.40
2022-12-18T01:59:02.557Z,80.53
2022-12-18T02:01:32.417Z,84.63
2022-12-18T02:04:21.863Z,90.25
2022-12-18T02:06:55.765Z,96.45
2022-12-18T02:09:33.285Z,95.47
2022-12-18T02:12:03.918Z,87.22
2022-12-18T02:17:10.571Z,97.30
2022-12-18T02:20:03.992Z,96.47
2022-12-18T02:22:38.999Z,96.50
2022-12-18T02:25:43.784Z,91.93
2022-12-18T02:28:16.654Z,93.32
2022-12-18T02:30:48.790Z,96.15
2022-12-18T02:33:17.925Z,93.65
2022-12-18T02:35:46.910Z,88.40
2022-12-18T02:38:16.567Z,88.57
2022-12-18T02:40:47.467Z,92.70
2022-12-18T02:43:17.805Z,96.43
2022-12-18T02:45:52.922Z,100.20
2022-12-18T02:48:25.760Z,86.80
2022-12-18T02:51:15.088Z,93.40
2022-12-18T02:53:51.407Z,89.75
2022-12-18T02:56:29.486Z,92.43
2022-12-18T02:59:04.647Z,99.85
2022-12-18T03:02:10.806Z,95.28
2022-12-18T03:04:51.126Z,107.78
2022-12-18T03:07:35.889Z,105.03
2022-12-18T03:10:06.473Z,115.50
2022-12-18T03:12:39.021Z,101.70
2022-12-18T03:15:20.956Z,108.15
2022-12-18T03:18:03.885Z,112.28
2022-12-18T03:20:35.310Z,115.70
2022-12-18T03:23:10.504Z,115.57
2022-12-18T03:25:43.527Z,115.03
2022-12-18T03:28:20.829Z,124.38
2022-12-18T03:30:52.800Z,121.95
2022-12-18T03:33:39.447Z,107.80
2022-12-18T03:36:07.518Z,109.18
2022-12-18T03:38:34.922Z,100.95
2022-12-18T03:41:21.154Z,107.22
2022-12-18T03:44:54.995Z,100.40
2022-12-18T03:47:35.922Z,95.15
2022-12-18T03:50:12.460Z,106.95
2022-12-18T03:52:55.989Z,91.65
2022-12-18T03:55:27.249Z,93.72
2022-12-18T03:58:02.665Z,90.15
2022-12-18T04:00:40.648Z,95.93
2022-12-18T04:03:13.894Z,93.88
2022-12-18T04:05:52.359Z,95.00
2022-12-18T04:08:23.407Z,100.03
2022-12-18T04:11:03.272Z,98.43
2022-12-18T04:13:36.638Z,94.80
2022-12-18T04:16:08.086Z,88.72
2022-12-18T04:18:36.030Z,104.90
2022-12-18T04:21:03.887Z,104.22
2022-12-18T04:23:34.053Z,91.18
2022-12-18T04:26:02.529Z,96.05
2022-12-18T04:28:58.209Z,103.30
2022-12-18T04:31:25.776Z,94.75
2022-12-18T04:33:53.718Z,97.22
2022-12-18T04:36:21.536Z,90.15
2022-12-18T04:38:48.999Z,94.35
2022-12-18T04:41:19.006Z,92.95
2022-12-18T04:43:48.627Z,101.40
2022-12-18T04:46:15.981Z,93.43
2022-12-18T04:48:43.241Z,91.63
2022-12-18T04:51:10.786Z,83.40
2022-12-18T04:53:39.987Z,89.47
2022-12-18T04:56:12.460Z,90.43
2022-12-18T04:58:41.682Z,83.90
2022-12-18T05:01:09.399Z,82.35
2022-12-18T05:03:38.114Z,76.07
2022-12-18T05:06:07.774Z,70.33
2022-12-18T05:08:35.142Z,73.60
2022-12-18T05:11:16.623Z,68.18
2022-12-18T05:13:45.472Z,64.22
2022-12-18T05:16:14.228Z,66.00
2022-12-18T05:18:41.897Z,61.67
2022-12-18T05:21:09.383Z,58.95
2022-12-18T05:23:37.211Z,58.92
2022-12-18T05:26:07.093Z,52.25
2022-12-18T05:28:36.067Z,62.55
2022-12-18T05:31:05.555Z,59.40
2022-12-18T05:33:35.139Z,56.05
2022-12-18T05:36:07.060Z,60.10
2022-12-18T05:38:37.064Z,47.75
2022-12-18T05:41:05.776Z,56.25
2022-12-18T05:43:36.863Z,51.55
2022-12-18T05:46:13.205Z,58.60
2022-12-18T05:48:40.844Z,54.50
2022-12-18T05:51:10.882Z,56.95
2022-12-18T05:53:39.139Z,49.90
2022-12-18T05:56:10.102Z,50.20
2022-12-18T05:58:38.267Z,51.00
2022-12-18T06:01:14.655Z,48.13
2022-12-18T06:03:42.691Z,48.47
2022-12-18T06:06:18.354Z,56.88
2022-12-18T06:08:46.617Z,53.28
2022-12-18T06:11:17.277Z,51.17
2022-12-18T06:13:44.720Z,54.75
2022-12-18T06:16:12.049Z,47.40
2022-12-18T06:18:39.573Z,47.70
2022-12-18T06:21:07.138Z,53.30
2022-12-18T06:23:34.461Z,57.97
2022-12-18T06:26:06.772Z,49.63
2022-12-18T06:28:34.358Z,53.35
2022-12-18T06:31:01.879Z,57.42
2022-12-18T06:33:29.189Z,49.75
2022-12-18T06:36:02.733Z,48.70
2022-12-18T06:38:30.034Z,50.42
2022-12-18T06:40:57.875Z,57.72
2022-12-18T06:43:25.656Z,49.35
2022-12-18T06:45:59.884Z,53.95
2022-12-18T06:48:27.471Z,47.72
2022-12-18T06:50:54.797Z,42.58
2022-12-18T06:53:22.235Z,50.20
2022-12-18T06:55:50.018Z,45.65
2022-12-18T06:58:17.244Z,39.60
2022-12-18T07:00:44.668Z,42.15
2022-12-18T07:03:13.270Z,44.42
2022-12-18T07:05:41.953Z,47.58
2022-12-18T07:08:09.430Z,42.33
2022-12-18T07:10:46.960Z,44.03
2022-12-18T07:13:19.563Z,42.83
2022-12-18T07:15:46.896Z,44.67
2022-12-18T07:18:14.157Z,37.50
2022-12-18T07:20:41.849Z,40.85
2022-12-18T07:23:09.207Z,38.38
2022-12-18T07:25:38.011Z,41.13
2022-12-18T07:28:05.693Z,40.45
2022-12-18T07:30:32.994Z,40.88
2022-12-18T07:33:00.196Z,36.03
2022-12-18T07:35:27.455Z,39.25
2022-12-18T07:37:54.717Z,37.97
2022-12-18T07:40:21.983Z,36.72
2022-12-18T07:42:49.371Z,38.78
2022-12-18T07:45:16.785Z,39.28
2022-12-18T07:47:44.266Z,36.83
2022-12-18T07:50:12.817Z,36.45
2022-12-18T07:52:40.098Z,38.50
2022-12-18T07:55:07.735Z,34.00
2022-12-18T07:57:50.223Z,34.33
2022-12-18T08:00:18.461Z,31.92
2022-12-18T08:02:45.855Z,31.77
2022-12-18T08:05:14.378Z,36.13
2022-12-18T08:07:41.605Z,32.78
2022-12-18T08:10:09.506Z,32.35
2022-12-18T08:12:36.744Z,32.00
2022-12-18T08:15:05.490Z,33.60
2022-12-18T08:17:34.062Z,34.92
2022-12-18T08:20:02.161Z,37.00
2022-12-18T08:22:29.404Z,34.88
2022-12-18T08:24:56.708Z,28.85
2022-12-18T08:27:31.217Z,31.80
2022-12-18T08:29:58.729Z,32.92
2022-12-18T08:32:27.505Z,33.83
2022-12-18T08:34:54.836Z,32.33
2022-12-18T08:37:22.095Z,34.08
2022-12-18T08:39:49.597Z,34.15
2022-12-18T08:42:35.756Z,32.80
2022-12-18T08:45:04.533Z,30.77
2022-12-18T08:47:31.798Z,30.95
2022-12-18T08:49:59.092Z,33.25
2022-12-18T08:52:26.561Z,28.33
2022-12-18T08:54:54.020Z,31.60
2022-12-18T08:57:21.354Z,23.63
2022-12-18T08:59:49.361Z,30.05
2022-12-18T09:02:16.755Z,30.25
2022-12-18T09:04:46.405Z,28.67
2022-12-18T09:07:14.163Z,28.67
2022-12-18T09:09:41.375Z,25.55
2022-12-18T09:12:10.287Z,26.27
2022-12-18T09:14:37.729Z,24.30
2022-12-18T09:17:05.351Z,25.42
2022-12-18T09:19:32.727Z,29.77
2022-12-18T09:22:01.744Z,26.33
2022-12-18T09:24:29.043Z,24.50
2022-12-18T09:26:58.051Z,27.23
2022-12-18T09:29:25.635Z,26.00
2022-12-18T09:31:52.926Z,25.10
2022-12-18T09:34:23.222Z,22.40
2022-12-18T09:36:51.293Z,20.95
2022-12-18T09:39:18.602Z,22.15
2022-12-18T09:41:58.366Z,20.75
2022-12-18T09:44:44.450Z,19.35
2022-12-18T09:47:29.251Z,26.67
2022-12-18T09:50:00.884Z,22.50
2022-12-18T09:52:34.404Z,22.25
2022-12-18T09:55:10.499Z,21.50
2022-12-18T09:57:43.875Z,21.60
2022-12-18T10:00:21.925Z,26.50
2022-12-18T10:02:52.067Z,17.60
2022-12-18T10:05:37.720Z,17.02
2022-12-18T10:08:17.248Z,18.90
2022-12-18T10:10:55.800Z,12.50
2022-12-18T10:13:43.082Z,17.48
2022-12-18T10:16:14.308Z,17.90
2022-12-18T10:19:08.266Z,14.32
2022-12-18T10:21:57.459Z,13.13
2022-12-18T10:24:32.192Z,17.98
2022-12-18T10:27:11.822Z,15.73
2022-12-18T10:29:39.418Z,14.95
2022-12-18T10:32:08.492Z,13.88
2022-12-18T10:34:36.215Z,12.68
2022-12-18T10:37:14.113Z,14.43
2022-12-18T10:39:41.358Z,13.98
2022-12-18T10:42:14.179Z,11.55
2022-12-18T10:44:41.993Z,12.23
2022-12-18T10:47:16.324Z,11.57
2022-12-18T10:49:50.783Z,11.98
2022-12-18T10:52:26.794Z,13.00
2022-12-18T10:55:05.699Z,14.20
2022-12-18T10:57:40.180Z,11.20
2022-12-18T11:00:24.566Z,13.20
2022-12-18T11:02:53.002Z,11.05
2022-12-18T11:05:32.674Z,10.80
2022-12-18T11:08:01.795Z,11.68
2022-12-18T11:10:38.970Z,12.82
2022-12-18T11:13:25.022Z,12.10
2022-12-18T11:15:53.162Z,13.88
2022-12-18T11:18:31.100Z,15.73
2022-12-18T11:21:25.814Z,15.05
2022-12-18T11:23:54.809Z,13.98
2022-12-18T11:26:34.291Z,12.48
2022-12-18T11:29:17.997Z,10.95
2022-12-18T11:31:45.690Z,13.25
2022-12-18T11:34:30.892Z,12.43
2022-12-18T11:37:00.752Z,13.43
2022-12-18T11:39:41.696Z,8.23
2022-12-18T11:44:51.102Z,10.85
2022-12-18T11:47:27.934Z,13.30
2022-12-18T11:49:58.010Z,11.57
2022-12-18T11:52:32.776Z,12.75
2022-12-18T11:55:02.376Z,9.43
2022-12-18T11:57:48.726Z,11.98
2022-12-18T12:00:23.669Z,10.65
2022-12-18T12:03:18.420Z,9.63
2022-12-18T12:05:46.702Z,10.32
2022-12-18T12:09:06.907Z,9.90
2022-12-18T12:12:09.879Z,9.73
2022-12-18T12:14:49.224Z,8.55
2022-12-18T12:17:46.035Z,8.80
2022-12-18T12:20:36.621Z,10.00
2022-12-18T12:23:11.671Z,9.32
2022-12-18T12:25:51.498Z,11.45
2022-12-18T12:28:55.711Z,7.88
2022-12-18T12:31:52.012Z,8.30
2022-12-18T12:34:56.188Z,10.85
2022-12-18T12:37:47.279Z,9.77
2022-12-18T12:40:50.334Z,9.43
2022-12-18T12:43:33.994Z,8.13
2022-12-18T12:46:05.945Z,8.48
2022-12-18T12:48:50.713Z,10.18
2022-12-18T12:51:29.304Z,9.65
2022-12-18T12:53:59.109Z,14.20
2022-12-18T12:56:40.965Z,11.77
2022-12-18T12:59:15.199Z,11.43
2022-12-18T13:02:27.840Z,10.23
2022-12-18T13:05:03.049Z,9.15
2022-12-18T13:08:07.082Z,9.38
2022-12-18T13:10:38.152Z,8.82
2022-12-18T13:13:10.507Z,8.77
2022-12-18T13:15:43.988Z,9.70
2022-12-18T13:18:11.471Z,9.27
2022-12-18T13:20:43.085Z,10.32
2022-12-18T13:23:29.366Z,12.55
2022-12-18T13:25:57.624Z,8.93
2022-12-18T13:28:47.635Z,8.98
2022-12-18T13:31:40.079Z,13.77
2022-12-18T13:34:26.300Z,15.18
2022-12-18T13:36:56.079Z,11.93
2022-12-18T13:39:34.869Z,11.13
2022-12-18T13:42:06.179Z,9.88
2022-12-18T13:47:34.858Z,11.10
2022-12-18T13:50:19.090Z,11.82
2022-12-18T13:52:47.559Z,16.98
2022-12-18T13:55:20.902Z,10.38
2022-12-18T13:57:48.908Z,10.73
2022-12-18T14:00:29.709Z,11.93
2022-12-18T14:02:59.296Z,12.85
2022-12-18T14:05:30.938Z,10.98
2022-12-18T14:08:12.621Z,9.13
2022-12-18T14:10:49.996Z,11.98
2022-12-18T14:13:29.108Z,9.60
2022-12-18T14:15:59.032Z,10.95
2022-12-18T14:18:39.798Z,11.00
2022-12-18T14:21:16.586Z,21.25
2022-12-18T14:23:44.318Z,15.40
2022-12-18T14:26:31.813Z,12.77
2022-12-18T14:29:19.971Z,11.40
2022-12-18T14:32:07.643Z,11.95
2022-12-18T14:34:38.120Z,11.60
2022-12-18T14:37:08.111Z,12.52
2022-12-18T14:39:35.337Z,13.43
2022-12-18T14:42:02.630Z,12.63
2022-12-18T14:44:39.072Z,12.38
2022-12-18T14:47:18.733Z,11.65
2022-12-18T14:49:46.105Z,14.25
2022-12-18T14:52:30.323Z,9.60
2022-12-18T14:54:57.794Z,11.93
2022-12-18T14:57:31.490Z,12.30
2022-12-18T15:00:18.315Z,13.25
2022-12-18T15:02:57.224Z,18.02
2022-12-18T15:05:32.562Z,14.40
2022-12-18T15:08:01.689Z,11.05
2022-12-18T15:10:33.418Z,15.15
2022-12-18T15:13:01.478Z,12.32
2022-12-18T15:15:35.363Z,15.20
2022-12-18T15:18:08.993Z,13.35
2022-12-18T15:20:52.774Z,13.07
2022-12-18T15:23:24.419Z,11.35
2022-12-18T15:26:03.877Z,11.68
2022-12-18T15:28:51.170Z,11.07
2022-12-18T15:31:41.654Z,10.98
2022-12-18T15:34:08.841Z,12.30
2022-12-18T15:36:37.485Z,12.60
2022-12-18T15:39:06.837Z,10.95
2022-12-18T15:41:36.652Z,10.38
2022-12-18T15:44:25.725Z,8.95
2022-12-18T15:46:52.992Z,14.20
2022-12-18T15:49:20.339Z,11.18
2022-12-18T15:52:00.285Z,11.18
2022-12-18T15:54:46.422Z,8.55
2022-12-18T15:57:25.602Z,12.23
2022-12-18T15:59:56.206Z,11.57
2022-12-18T16:02:23.978Z,9.50
2022-12-18T16:04:53.269Z,10.93
2022-12-18T16:07:25.266Z,12.18
2022-12-18T16:09:53.376Z,8.57
2022-12-18T16:12:23.663Z,10.70
2022-12-18T16:14:51.110Z,10.32
2022-12-18T16:17:18.869Z,12.18
2022-12-18T16:19:46.108Z,12.77
2022-12-18T16:22:24.885Z,25.73
2022-12-18T16:24:53.977Z,15.23
2022-12-18T16:27:22.317Z,15.10
2022-12-18T16:29:51.099Z,8.88
2022-12-18T16:32:20.843Z,12.15
2022-12-18T16:34:48.495Z,9.35
2022-12-18T16:37:16.878Z,9.05
2022-12-18T16:39:44.537Z,10.15
2022-12-18T16:42:20.473Z,8.88
2022-12-18T16:44:49.709Z,8.95
2022-12-18T16:47:17.957Z,9.55
2022-12-18T16:49:51.655Z,9.40
2022-12-18T16:52:20.119Z,10.02
2022-12-18T16:54:47.933Z,11.02
2022-12-18T16:57:18.414Z,9.38
2022-12-18T16:59:46.733Z,10.02
2022-12-18T17:02:25.967Z,8.88
2022-12-18T17:04:57.342Z,13.88
2022-12-18T17:07:25.756Z,8.55
2022-12-18T17:09:54.260Z,12.60
2022-12-18T17:12:22.136Z,8.10
2022-12-18T17:14:49.793Z,9.10
2022-12-18T17:17:22.582Z,11.23
2022-12-18T17:19:52.117Z,8.80
2022-12-18T17:22:20.713Z,12.68
2022-12-18T17:24:48.104Z,9.23
2022-12-18T17:27:15.728Z,8.45
2022-12-18T17:29:47.334Z,11.35
2022-12-18T17:32:16.749Z,10.20
2022-12-18T17:34:44.063Z,9.35
2022-12-18T17:37:11.826Z,9.55
2022-12-18T17:39:39.825Z,11.25
2022-12-18T17:42:07.834Z,9.85
2022-12-18T17:47:06.139Z,8.65
2022-12-18T17:49:33.480Z,10.77
2022-12-18T17:52:00.729Z,8.38
2022-12-18T17:54:27.962Z,9.80
2022-12-18T17:56:55.163Z,8.70
2022-12-18T17:59:22.709Z,8.93
2022-12-18T18:01:50.313Z,8.75
2022-12-18T18:04:17.769Z,10.88
2022-12-18T18:06:45.321Z,8.32
2022-12-18T18:09:16.789Z,9.00
2022-12-18T18:12:06.310Z,10.43
2022-12-18T18:14:33.671Z,8.88
2022-12-18T18:17:05.252Z,40.55
2022-12-18T18:19:33.597Z,13.63
2022-12-18T18:22:01.721Z,9.68
2022-12-18T18:24:30.828Z,10.65
2022-12-18T18:27:00.151Z,7.80
2022-12-18T18:29:30.565Z,8.68
2022-12-18T18:31:58.982Z,6.38
2022-12-18T18:34:31.685Z,12.73
2022-12-18T18:37:01.488Z,7.43
2022-12-18T18:39:29.520Z,8.57
2022-12-18T18:41:57.030Z,9.10
2022-12-18T18:44:26.084Z,7.55
2022-12-18T18:46:55.572Z,8.15
2022-12-18T18:49:27.683Z,7.20
2022-12-18T18:51:57.489Z,11.05
2022-12-18T18:54:25.876Z,7.85
2022-12-18T18:59:40.510Z,7.47
2022-12-18T19:02:14.006Z,11.07
2022-12-18T19:04:45.895Z,9.30
2022-12-18T19:07:29.355Z,9.00
2022-12-18T19:10:03.855Z,8.77
2022-12-18T19:12:50.220Z,7.38
2022-12-18T19:15:17.639Z,7.63
2022-12-18T19:17:45.189Z,7.18
2022-12-18T19:20:15.211Z,6.35
2022-12-18T19:22:43.214Z,8.25
2022-12-18T19:25:12.114Z,8.38
2022-12-18T19:27:40.169Z,9.75
2022-12-18T19:30:08.340Z,7.43
2022-12-18T19:32:35.742Z,11.70
2022-12-18T19:35:03.172Z,8.00
2022-12-18T19:37:31.872Z,6.53
2022-12-18T19:39:59.179Z,8.02
2022-12-18T19:42:35.088Z,8.38
2022-12-18T19:45:02.972Z,7.95
2022-12-18T19:47:31.241Z,8.68
2022-12-18T19:49:58.573Z,6.03
2022-12-18T19:52:25.812Z,7.78
2022-12-18T19:54:53.769Z,8.57
2022-12-18T19:57:21.038Z,10.35
2022-12-18T19:59:48.248Z,9.82
2022-12-18T20:02:16.533Z,6.40
2022-12-18T20:04:43.896Z,8.75
2022-12-18T20:07:12.303Z,8.63
2022-12-18T20:09:39.563Z,9.88
2022-12-18T20:12:07.002Z,7.75
2022-12-18T20:14:34.438Z,8.48
2022-12-18T20:17:01.741Z,10.55
2022-12-18T20:19:29.175Z,10.18
2022-12-18T20:21:56.916Z,8.73
2022-12-18T20:24:24.196Z,7.35
2022-12-18T20:26:51.601Z,7.97
2022-12-18T20:29:18.868Z,7.07
2022-12-18T20:31:46.201Z,11.85
2022-12-18T20:34:13.803Z,8.50
2022-12-18T20:36:41.190Z,7.82
2022-12-18T20:39:10.893Z,9.15
2022-12-18T20:41:39.514Z,7.70
2022-12-18T20:44:21.586Z,9.25
2022-12-18T20:46:56.473Z,9.57
2022-12-18T20:49:26.441Z,9.20
2022-12-18T20:51:56.320Z,10.07
2022-12-18T20:54:25.606Z,11.18
2022-12-18T20:56:52.908Z,9.98
2022-12-18T20:59:20.564Z,8.07
2022-12-18T21:01:48.923Z,11.50
2022-12-18T21:04:19.306Z,8.75
2022-12-18T21:06:52.414Z,7.15
2022-12-18T21:09:23.590Z,11.27
2022-12-18T21:12:10.884Z,11.32
2022-12-18T21:14:42.930Z,13.15
2022-12-18T21:17:10.780Z,12.50
2022-12-18T21:19:38.191Z,12.68
2022-12-18T21:22:05.953Z,11.88
2022-12-18T21:24:33.882Z,13.15
2022-12-18T21:27:02.065Z,13.90
2022-12-18T21:29:29.545Z,14.02
2022-12-18T21:31:56.869Z,10.68
2022-12-18T21:34:27.765Z,10.68
2022-12-18T21:36:57.577Z,14.40
2022-12-18T21:39:25.859Z,12.80
2022-12-18T21:42:11.753Z,14.20
2022-12-18T21:44:42.267Z,12.07
2022-12-18T21:47:21.656Z,13.63
2022-12-18T21:49:51.592Z,14.93
2022-12-18T21:52:19.353Z,15.68
2022-12-18T21:54:47.309Z,13.25
2022-12-18T21:57:14.851Z,13.45
2022-12-18T21:59:43.727Z,12.55
2022-12-18T22:02:20.120Z,13.20
2022-12-18T22:04:48.282Z,15.68
2022-12-18T22:07:16.557Z,15.05
2022-12-18T22:09:43.963Z,15.77
2022-12-18T22:12:13.865Z,17.48
2022-12-18T22:14:41.051Z,11.00
2022-12-18T22:17:09.800Z,22.10
2022-12-18T22:19:42.881Z,15.70
2022-12-18T22:22:10.867Z,15.18
2022-12-18T22:24:38.374Z,15.55
2022-12-18T22:27:06.613Z,19.98
2022-12-18T22:29:52.649Z,15.13
2022-12-18T22:32:20.666Z,18.35
2022-12-18T22:35:08.296Z,15.98
2022-12-18T22:37:37.041Z,18.02
2022-12-18T22:40:07.295Z,15.95
2022-12-18T22:42:34.806Z,20.88
2022-12-18T22:45:02.228Z,16.80
2022-12-18T22:47:30.642Z,21.08
2022-12-18T22:49:58.526Z,17.88
2022-12-18T22:52:25.939Z,19.83
2022-12-18T22:54:54.256Z,17.88
2022-12-18T22:57:23.342Z,21.05
2022-12-18T22:59:51.732Z,21.83
2022-12-18T23:02:19.561Z,18.95
2022-12-18T23:04:50.506Z,19.77
2022-12-18T23:07:18.365Z,20.42
2022-12-18T23:09:45.643Z,24.02
2022-12-18T23:12:16.851Z,23.65
2022-12-18T23:14:44.525Z,26.02
2022-12-18T23:17:11.733Z,21.42
2022-12-18T23:19:42.816Z,22.20
2022-12-18T23:22:12.919Z,22.75
2022-12-18T23:24:40.627Z,23.25
2022-12-18T23:27:11.526Z,22.75
2022-12-18T23:29:40.680Z,24.38
2022-12-18T23:32:08.492Z,26.48
2022-12-18T23:34:35.780Z,25.92
2022-12-18T23:37:03.987Z,23.80
2022-12-18T23:39:31.462Z,29.55
2022-12-18T23:41:59.453Z,28.38
2022-12-18T23:44:27.216Z,27.70
2022-12-18T23:46:54.921Z,26.92
2022-12-18T23:49:22.622Z,27.23
2022-12-18T23:51:50.055Z,28.33
2022-12-18T23:54:17.377Z,26.02
2022-12-18T23:56:49.822Z,29.75
2022-12-18T23:59:19.369Z,28.23
